Matheson, Colorado
Current Conditions -  °F | °C
As of 8:55 PM on Wednesday 26 Nov 2014 (Local Time) from KLIC Reporting Station
Clear Clear  
Wind Chill: 18°   Ceiling: Unl
Heat Index: 28°   Visibility: 10mi
Dew Point: 20°   Wind: 12mph
Humidity: 72%   Direction: 170°S
Pressure: 30.29"   Gusts: NA
Location:  39.17°N, 103.98°W
Report Text: KLIC 270355Z AUTO 17010KT 10SM CLR M02/M07 A3029 RMK AO2 SLP282 T10221067
Loading
Personal Weather Stations






























Interactive Weather Map New forecast layout! Learn more

10-Day Weather Forecast

Advertisements
Track Severe Weather on mobile